Time,TemperatureF,DewpointF,PressureIn,WindDirection,WindDirectionDegrees,WindSpeedMPH,WindSpeedGustMPH,Humidity,HourlyPrecipIn,Conditions,Clouds,dailyrainin,SoftwareType,DateUTC
2013-01-27 09:45:00,16.7,-6.2,30.24,NW,315,7.6,7.6,35,0.00,,,0.00,VWS V14.01,2013-01-27 14:45:00,
2013-01-27 10:00:00,17.6,-6.0,30.24,NNW,338,8.5,17.0,34,0.00,,,0.00,VWS V14.01,2013-01-27 15:00:00,
2013-01-27 10:30:00,19.6,-4.2,30.24,NNW,338,16.6,16.6,34,0.00,,,0.00,VWS V14.01,2013-01-27 15:30:00,
2013-01-27 10:42:00,16.7,-6.2,30.24,NW,315,7.6,7.6,35,0.00,,OVC,0.00,VWS V14.01,2013-01-27 15:42:00,
2013-01-27 10:45:00,16.7,-6.2,30.24,NW,315,7.6,7.6,35,0.00,,OVC,0.00,VWS V14.01,2013-01-27 15:45:00,
2013-01-27 10:47:00,16.9,-6.0,30.24,NW,315,11.4,16.3,35,0.00,,OVC,0.00,VWS V14.01,2013-01-27 15:47:00,
2013-01-27 10:52:00,17.2,-6.3,30.24,NNW,338,19.2,19.2,34,0.00,,OVC,0.00,VWS V14.01,2013-01-27 15:52:00,
2013-01-27 10:57:00,17.4,-5.5,30.24,NW,315,23.7,23.7,35,0.00,,OVC,0.00,VWS V14.01,2013-01-27 15:57:00,
2013-01-27 11:00:00,17.6,-6.0,30.24,NNW,338,8.5,17.0,34,0.00,,OVC,0.00,VWS V14.01,2013-01-27 16:00:00,
2013-01-27 11:02:00,18.0,-5.7,30.24,NNW,338,10.5,13.9,34,0.00,,OVC,0.00,VWS V14.01,2013-01-27 16:02:00,
2013-01-27 11:07:00,17.8,-5.8,30.24,NNW,338,19.9,23.5,34,0.00,,OVC,0.00,VWS V14.01,2013-01-27 16:07:00,
2013-01-27 11:12:00,18.1,-5.5,30.24,WNW,292,16.8,17.2,34,0.00,,OVC,0.00,VWS V14.01,2013-01-27 16:12:00,
2013-01-27 11:17:00,19.6,-4.2,30.24,NNW,338,12.3,12.3,34,0.00,,OVC,0.00,VWS V14.01,2013-01-27 16:17:00,
2013-01-27 11:22:00,20.1,-4.4,30.24,NW,315,8.5,15.7,33,0.00,,OVC,0.00,VWS V14.01,2013-01-27 16:22:00,
2013-01-27 11:27:00,19.6,-4.8,30.24,NNW,338,19.7,19.7,33,0.00,,OVC,0.00,VWS V14.01,2013-01-27 16:27:00,
2013-01-27 11:30:00,19.6,-4.2,30.24,NNW,338,16.6,16.6,34,0.00,,OVC,0.00,VWS V14.01,2013-01-27 16:30:00,
2013-01-27 11:32:00,20.1,-4.4,30.24,NNW,338,13.2,19.2,33,0.00,,OVC,0.00,VWS V14.01,2013-01-27 16:32:00,
2013-01-27 11:37:00,19.8,-4.7,30.21,NNW,338,10.3,19.9,33,0.00,,OVC,0.00,VWS V14.01,2013-01-27 16:37:00,
2013-01-27 11:42:00,20.3,-4.2,30.21,NNW,338,13.0,13.0,33,0.00,,OVC,0.00,VWS V14.01,2013-01-27 16:42:00,
2013-01-27 11:47:00,20.5,-4.0,30.21,NNW,338,10.1,12.8,33,0.00,,OVC,0.00,VWS V14.01,2013-01-27 16:47:00,
2013-01-27 11:52:00,20.5,-4.0,30.21,NNW,338,10.3,21.0,33,0.00,,OVC,0.00,VWS V14.01,2013-01-27 16:52:00,
2013-01-27 11:57:00,20.1,-4.4,30.21,NNW,338,17.9,19.9,33,0.00,,OVC,0.00,VWS V14.01,2013-01-27 16:57:00,
2013-01-27 12:00:00,20.3,-4.8,30.21,NNW,338,13.2,17.7,32,0.00,,OVC,0.00,VWS V14.01,2013-01-27 17:00:00,
2013-01-27 12:02:00,20.3,-4.2,30.21,NNW,338,15.2,17.5,33,0.00,,OVC,0.00,VWS V14.01,2013-01-27 17:02:00,
2013-01-27 12:07:00,20.3,-4.8,30.21,NNW,338,19.0,19.0,32,0.00,,OVC,0.00,VWS V14.01,2013-01-27 17:07:00,
2013-01-27 12:12:00,21.0,-3.6,30.21,NNW,338,10.3,17.7,33,0.00,,OVC,0.00,VWS V14.01,2013-01-27 17:12:00,
2013-01-27 12:17:00,20.8,-4.4,30.21,NNW,338,15.7,22.4,32,0.00,,OVC,0.00,VWS V14.01,2013-01-27 17:17:00,
2013-01-27 12:22:00,22.1,-3.2,30.21,NNW,338,6.5,12.8,32,0.00,,OVC,0.00,VWS V14.01,2013-01-27 17:22:00,
2013-01-27 12:27:00,22.1,-3.2,30.21,NW,315,13.2,13.2,32,0.00,,OVC,0.00,VWS V14.01,2013-01-27 17:27:00,
2013-01-27 12:30:00,21.7,-3.6,30.21,NW,315,24.4,24.4,32,0.00,,OVC,0.00,VWS V14.01,2013-01-27 17:30:00,
2013-01-27 12:32:00,21.2,-4.0,30.21,NNW,338,14.8,17.0,32,0.00,,OVC,0.00,VWS V14.01,2013-01-27 17:32:00,
2013-01-27 12:37:00,21.2,-3.4,30.21,NW,315,15.2,15.2,33,0.00,,OVC,0.00,VWS V14.01,2013-01-27 17:37:00,
2013-01-27 12:42:00,21.4,-3.9,30.21,NNW,338,10.3,15.4,32,0.00,,OVC,0.00,VWS V14.01,2013-01-27 17:42:00,
2013-01-27 12:47:00,21.4,-3.9,30.21,NNW,338,13.2,20.4,32,0.00,,OVC,0.00,VWS V14.01,2013-01-27 17:47:00,
2013-01-27 12:52:00,21.6,-3.7,30.21,NNW,338,15.2,15.2,32,0.00,,OVC,0.00,VWS V14.01,2013-01-27 17:52:00,
2013-01-27 12:57:00,21.9,-3.4,30.21,NNW,338,9.8,13.0,32,0.00,,OVC,0.00,VWS V14.01,2013-01-27 17:57:00,
2013-01-27 13:00:00,21.7,-3.6,30.21,NNW,338,12.5,13.2,32,0.00,,OVC,0.00,VWS V14.01,2013-01-27 18:00:00,
2013-01-27 13:02:00,21.4,-3.9,30.21,NNW,338,13.2,16.1,32,0.00,,OVC,0.00,VWS V14.01,2013-01-27 18:02:00,
2013-01-27 13:07:00,21.0,-3.6,30.21,NNW,338,12.3,16.1,33,0.00,,OVC,0.00,VWS V14.01,2013-01-27 18:07:00,
2013-01-27 13:12:00,21.0,-3.6,30.21,NNW,338,10.5,23.3,33,0.00,,OVC,0.00,VWS V14.01,2013-01-27 18:12:00,
2013-01-27 13:17:00,20.7,-3.9,30.21,WNW,292,10.5,12.3,33,0.00,,OVC,0.00,VWS V14.01,2013-01-27 18:17:00,
2013-01-27 13:22:00,21.2,-3.4,30.21,NNW,338,5.4,10.1,33,0.00,,OVC,0.00,VWS V14.01,2013-01-27 18:22:00,
2013-01-27 13:27:00,21.4,-3.9,30.21,NW,315,10.3,12.3,32,0.00,,OVC,0.00,VWS V14.01,2013-01-27 18:27:00,
2013-01-27 13:30:00,21.6,-3.7,30.21,NW,315,10.3,10.3,32,0.00,,OVC,0.00,VWS V14.01,2013-01-27 18:30:00,
2013-01-27 13:32:00,21.4,-3.9,30.21,NW,315,10.3,10.3,32,0.00,,OVC,0.00,VWS V14.01,2013-01-27 18:32:00,
2013-01-27 13:37:00,20.8,-3.7,30.24,NW,315,7.6,7.6,33,0.00,,OVC,0.00,VWS V14.01,2013-01-27 18:37:00,
2013-01-27 13:43:00,20.8,-3.7,30.24,NNW,338,13.0,13.0,33,0.00,,OVC,0.00,VWS V14.01,2013-01-27 18:43:00,
2013-01-27 13:48:00,20.8,-3.7,30.24,NW,315,13.0,13.0,33,0.00,,OVC,0.00,VWS V14.01,2013-01-27 18:48:00,
2013-01-27 13:53:00,21.0,-3.6,30.21,NNW,338,8.7,18.6,33,0.00,,OVC,0.00,VWS V14.01,2013-01-27 18:53:00,
2013-01-27 13:58:00,21.2,-3.4,30.21,NNW,338,12.5,13.9,33,0.00,,OVC,0.00,VWS V14.01,2013-01-27 18:58:00,
2013-01-27 14:00:00,21.0,-3.6,30.21,NW,315,11.0,14.8,33,0.00,,OVC,0.00,VWS V14.01,2013-01-27 19:00:00,
2013-01-27 14:03:00,20.8,-3.7,30.21,NW,315,10.5,13.0,33,0.00,,OVC,0.00,VWS V14.01,2013-01-27 19:03:00,
2013-01-27 14:08:00,20.5,-4.0,30.21,NW,315,12.5,17.2,33,0.00,,OVC,0.00,VWS V14.01,2013-01-27 19:08:00,
2013-01-27 14:13:00,20.5,-4.0,30.21,WNW,292,14.5,14.5,33,0.00,,OVC,0.00,VWS V14.01,2013-01-27 19:13:00,
2013-01-27 14:18:00,20.5,-4.0,30.21,NNW,338,10.1,12.5,33,0.00,,OVC,0.00,VWS V14.01,2013-01-27 19:18:00,
2013-01-27 14:23:00,20.5,-4.0,30.21,NW,315,15.2,15.2,33,0.00,,OVC,0.00,VWS V14.01,2013-01-27 19:23:00,
2013-01-27 14:28:00,20.7,-3.9,30.21,NNW,338,12.8,12.8,33,0.00,,OVC,0.00,VWS V14.01,2013-01-27 19:28:00,
2013-01-27 14:30:00,20.8,-3.7,30.21,NNW,338,7.6,9.0,33,0.00,,OVC,0.00,VWS V14.01,2013-01-27 19:30:00,
2013-01-27 14:33:00,21.2,-3.4,30.21,WNW,292,6.3,12.1,33,0.00,,OVC,0.00,VWS V14.01,2013-01-27 19:33:00,
2013-01-27 14:38:00,20.8,-3.7,30.18,NNW,338,12.5,17.2,33,0.00,,OVC,0.00,VWS V14.01,2013-01-27 19:38:00,
2013-01-27 14:43:00,21.6,-3.7,30.18,NW,315,7.8,12.5,32,0.00,,OVC,0.00,VWS V14.01,2013-01-27 19:43:00,
2013-01-27 14:48:00,21.4,-3.9,30.18,NNW,338,10.7,18.8,32,0.00,,OVC,0.00,VWS V14.01,2013-01-27 19:48:00,
2013-01-27 14:53:00,21.4,-3.9,30.21,NW,315,8.5,16.6,32,0.00,,OVC,0.00,VWS V14.01,2013-01-27 19:53:00,
2013-01-27 14:58:00,21.6,-3.7,30.21,NNW,338,11.0,19.5,32,0.00,,OVC,0.00,VWS V14.01,2013-01-27 19:58:00,
2013-01-27 15:00:00,21.4,-3.9,30.21,NW,315,11.2,14.8,32,0.00,,OVC,0.00,VWS V14.01,2013-01-27 20:00:00,
2013-01-27 15:03:00,21.2,-3.4,30.21,NNW,338,12.8,17.7,33,0.00,,OVC,0.00,VWS V14.01,2013-01-27 20:03:00,
2013-01-27 15:08:00,21.2,-3.4,30.18,NNW,338,15.2,17.5,33,0.00,,OVC,0.00,VWS V14.01,2013-01-27 20:08:00,
2013-01-27 15:13:00,21.2,-3.4,30.18,NW,315,10.7,12.5,33,0.00,,OVC,0.00,VWS V14.01,2013-01-27 20:13:00,
2013-01-27 15:18:00,21.2,-3.4,30.18,NNW,338,9.8,10.7,33,0.00,,OVC,0.00,VWS V14.01,2013-01-27 20:18:00,
2013-01-27 15:23:00,21.4,-3.2,30.21,NW,315,8.5,12.8,33,0.00,,OVC,0.00,VWS V14.01,2013-01-27 20:23:00,
2013-01-27 15:28:00,21.2,-3.4,30.21,NNW,338,13.0,13.0,33,0.00,,OVC,0.00,VWS V14.01,2013-01-27 20:28:00,
2013-01-27 15:30:00,21.0,-3.6,30.21,NNW,338,27.7,29.3,33,0.00,,OVC,0.00,VWS V14.01,2013-01-27 20:30:00,
2013-01-27 15:33:00,21.0,-3.6,30.21,WNW,292,12.8,19.5,33,0.00,,OVC,0.00,VWS V14.01,2013-01-27 20:33:00,
2013-01-27 15:38:00,20.8,-3.7,30.21,NNW,338,12.8,12.8,33,0.00,,OVC,0.00,VWS V14.01,2013-01-27 20:38:00,
2013-01-27 15:43:00,20.8,-3.7,30.21,NNW,338,11.2,16.6,33,0.00,,OVC,0.00,VWS V14.01,2013-01-27 20:43:00,
2013-01-27 15:48:00,20.7,-3.9,30.21,NNW,338,11.0,13.4,33,0.00,,OVC,0.00,VWS V14.01,2013-01-27 20:48:00,
2013-01-27 15:53:00,20.5,-4.0,30.24,NW,315,11.0,13.0,33,0.00,,OVC,0.00,VWS V14.01,2013-01-27 20:53:00,
2013-01-27 15:58:00,20.3,-4.2,30.24,NNW,338,13.0,13.0,33,0.00,,OVC,0.00,VWS V14.01,2013-01-27 20:58:00,
2013-01-27 16:00:00,20.3,-4.2,30.24,NNW,338,11.0,13.4,33,0.00,,OVC,0.00,VWS V14.01,2013-01-27 21:00:00,
2013-01-27 16:03:00,20.3,-4.2,30.24,NW,315,14.5,18.8,33,0.00,,OVC,0.00,VWS V14.01,2013-01-27 21:03:00,
2013-01-27 16:04:00,18.7,-5.0,30.24,NW,315,7.6,7.6,34,0.00,,,0.00,VWS V14.01,2013-01-27 21:04:00,
2013-01-27 16:05:00,18.7,-5.0,30.27,NW,315,6.0,7.6,34,0.00,,,0.00,VWS V14.01,2013-01-27 21:05:00,
2013-01-27 16:06:00,18.5,-5.2,30.27,NW,315,6.0,7.6,34,0.00,,,0.00,VWS V14.01,2013-01-27 21:06:00,
2013-01-27 16:08:00,20.3,-4.2,30.21,NW,315,10.7,11.4,33,0.00,,OVC,0.00,VWS V14.01,2013-01-27 21:08:00,
2013-01-27 16:13:00,20.1,-4.4,30.21,NNW,338,6.0,15.4,33,0.00,,OVC,0.00,VWS V14.01,2013-01-27 21:13:00,
2013-01-27 16:18:00,19.9,-4.5,30.21,NNW,338,9.8,13.0,33,0.00,,OVC,0.00,VWS V14.01,2013-01-27 21:18:00,
2013-01-27 16:23:00,19.9,-4.5,30.24,NW,315,10.7,17.5,33,0.00,,OVC,0.00,VWS V14.01,2013-01-27 21:23:00,
2013-01-27 16:28:00,19.8,-4.7,30.24,NNW,338,10.7,14.8,33,0.00,,OVC,0.00,VWS V14.01,2013-01-27 21:28:00,
2013-01-27 16:30:00,19.8,-4.7,30.24,NW,315,5.4,10.7,33,0.00,,OVC,0.00,VWS V14.01,2013-01-27 21:30:00,
2013-01-27 16:33:00,19.6,-4.8,30.24,NW,315,6.7,9.8,33,0.00,,OVC,0.00,VWS V14.01,2013-01-27 21:33:00,
2013-01-27 16:38:00,19.4,-5.0,30.24,NNW,338,8.7,10.1,33,0.00,,OVC,0.00,VWS V14.01,2013-01-27 21:38:00,
2013-01-27 16:43:00,19.2,-5.2,30.24,NNW,338,12.3,17.7,33,0.00,,OVC,0.00,VWS V14.01,2013-01-27 21:43:00,
2013-01-27 16:48:00,19.2,-4.5,30.24,NW,315,7.6,8.1,34,0.00,,OVC,0.00,VWS V14.01,2013-01-27 21:48:00,
2013-01-27 16:53:00,19.0,-4.7,30.24,NNW,338,11.9,12.3,34,0.00,,OVC,0.00,VWS V14.01,2013-01-27 21:53:00,
2013-01-27 16:58:00,18.9,-4.9,30.24,NNW,338,7.2,10.5,34,0.00,,OVC,0.00,VWS V14.01,2013-01-27 21:58:00,
2013-01-27 17:00:00,18.7,-5.0,30.24,NNW,338,5.8,9.8,34,0.00,,OVC,0.00,VWS V14.01,2013-01-27 22:00:00,
2013-01-27 17:03:00,18.7,-5.0,30.24,NNW,338,5.8,5.8,34,0.00,,OVC,0.00,VWS V14.01,2013-01-27 22:03:00,
2013-01-27 17:04:00,18.7,-5.0,30.24,NW,315,7.6,7.6,34,0.00,,OVC,0.00,VWS V14.01,2013-01-27 22:04:00,
2013-01-27 17:05:00,18.7,-5.0,30.27,NW,315,6.0,7.6,34,0.00,,OVC,0.00,VWS V14.01,2013-01-27 22:05:00,
2013-01-27 17:06:00,18.5,-5.2,30.27,NW,315,6.0,7.6,34,0.00,,OVC,0.00,VWS V14.01,2013-01-27 22:06:00,
2013-01-27 17:08:00,18.5,-5.2,30.27,NW,315,6.0,7.6,34,0.00,,OVC,0.00,VWS V14.01,2013-01-27 22:08:00,
2013-01-27 17:13:00,18.5,-5.2,30.27,NW,315,6.0,6.0,34,0.00,,OVC,0.00,VWS V14.01,2013-01-27 22:13:00,
2013-01-27 17:19:00,18.3,-5.3,30.27,NNW,338,6.0,6.0,34,0.00,,OVC,0.00,VWS V14.01,2013-01-27 22:19:00,
2013-01-27 17:24:00,18.1,-5.5,30.27,NNW,338,3.4,4.7,34,0.00,,OVC,0.00,VWS V14.01,2013-01-27 22:24:00,
2013-01-27 17:29:00,18.1,-5.5,30.27,WNW,292,5.6,6.3,34,0.00,,OVC,0.00,VWS V14.01,2013-01-27 22:29:00,
2013-01-27 17:30:00,18.0,-5.7,30.27,NW,315,4.0,5.6,34,0.00,,OVC,0.00,VWS V14.01,2013-01-27 22:30:00,
2013-01-27 17:34:00,18.1,-5.5,30.27,NNW,338,5.4,5.4,34,0.00,,OVC,0.00,VWS V14.01,2013-01-27 22:34:00,
2013-01-27 17:39:00,17.8,-5.8,30.24,NW,315,6.0,6.0,34,0.00,,OVC,0.00,VWS V14.01,2013-01-27 22:39:00,
2013-01-27 17:44:00,17.6,-5.4,30.24,NW,315,5.4,5.4,35,0.00,,OVC,0.00,VWS V14.01,2013-01-27 22:44:00,
2013-01-27 17:49:00,17.4,-5.5,30.24,NW,315,6.3,10.5,35,0.00,,OVC,0.00,VWS V14.01,2013-01-27 22:49:00,
2013-01-27 17:54:00,17.2,-5.7,30.27,WNW,292,4.3,7.4,35,0.00,,OVC,0.00,VWS V14.01,2013-01-27 22:54:00,
2013-01-27 17:59:00,17.1,-5.9,30.27,WNW,292,6.7,6.7,35,0.00,,OVC,0.00,VWS V14.01,2013-01-27 22:59:00,
2013-01-27 18:00:00,16.9,-6.0,30.27,WNW,292,2.9,6.7,35,0.00,,OVC,0.00,VWS V14.01,2013-01-27 23:00:00,
2013-01-27 18:04:00,16.9,-6.0,30.27,NNW,338,3.4,3.6,35,0.00,,OVC,0.00,VWS V14.01,2013-01-27 23:04:00,
2013-01-27 18:09:00,16.7,-6.2,30.27,NNW,338,7.4,9.8,35,0.00,,OVC,0.00,VWS V14.01,2013-01-27 23:09:00,
2013-01-27 18:14:00,16.7,-6.2,30.27,NNW,338,6.5,7.6,35,0.00,,OVC,0.00,VWS V14.01,2013-01-27 23:14:00,
2013-01-27 18:19:00,16.5,-6.3,30.27,NW,315,6.3,7.6,35,0.00,,OVC,0.00,VWS V14.01,2013-01-27 23:19:00,
2013-01-27 18:24:00,16.5,-6.3,30.27,NNW,338,7.4,9.8,35,0.00,,OVC,0.00,VWS V14.01,2013-01-27 23:24:00,
2013-01-27 18:29:00,16.2,-6.7,30.27,NNW,338,7.4,8.7,35,0.00,,OVC,0.00,VWS V14.01,2013-01-27 23:29:00,
2013-01-27 18:30:00,14.9,-7.2,30.30,NW,315,4.9,7.8,36,0.00,,,0.00,VWS V14.01,2013-01-27 23:30:00,
2013-01-27 18:34:00,16.0,-6.8,30.27,WNW,292,7.8,9.0,35,0.00,,OVC,0.00,VWS V14.01,2013-01-27 23:34:00,
2013-01-27 18:39:00,16.0,-6.8,30.30,NNW,338,7.2,8.1,35,0.00,,OVC,0.00,VWS V14.01,2013-01-27 23:39:00,
2013-01-27 18:44:00,16.0,-6.8,30.30,NNW,338,7.4,8.1,35,0.00,,OVC,0.00,VWS V14.01,2013-01-27 23:44:00,
2013-01-27 18:49:00,15.8,-6.4,30.30,NW,315,10.3,10.3,36,0.00,,OVC,0.00,VWS V14.01,2013-01-27 23:49:00,
2013-01-27 18:54:00,15.8,-7.0,30.33,NW,315,7.8,8.5,35,0.00,,OVC,0.00,VWS V14.01,2013-01-27 23:54:00,
2013-01-27 18:59:00,15.4,-6.7,30.33,NW,315,4.3,7.6,36,0.00,,OVC,0.00,VWS V14.01,2013-01-27 23:59:00,
2013-01-27 19:00:00,15.4,-6.7,30.33,NW,315,3.8,5.8,36,0.00,,OVC,0.00,VWS V14.01,2013-01-28 00:00:00,
2013-01-27 19:04:00,15.4,-6.7,30.33,NW,315,9.0,10.1,36,0.00,,OVC,0.00,VWS V14.01,2013-01-28 00:04:00,
2013-01-27 19:09:00,15.3,-6.9,30.33,NNW,338,6.0,9.0,36,0.00,,OVC,0.00,VWS V14.01,2013-01-28 00:09:00,
2013-01-27 19:14:00,15.3,-6.9,30.33,NNW,338,6.5,6.5,36,0.00,,OVC,0.00,VWS V14.01,2013-01-28 00:14:00,
2013-01-27 19:19:00,15.1,-7.1,30.33,WNW,292,13.9,13.9,36,0.00,,OVC,0.00,VWS V14.01,2013-01-28 00:19:00,
2013-01-27 19:24:00,15.1,-7.1,30.30,NW,315,6.9,6.9,36,0.00,,OVC,0.00,VWS V14.01,2013-01-28 00:24:00,
2013-01-27 19:29:00,14.9,-7.2,30.30,NW,315,5.4,7.8,36,0.00,,OVC,0.00,VWS V14.01,2013-01-28 00:29:00,
2013-01-27 19:30:00,14.9,-7.2,30.30,NW,315,4.9,7.8,36,0.00,,OVC,0.00,VWS V14.01,2013-01-28 00:30:00,
2013-01-27 19:34:00,14.7,-6.8,30.30,NNW,338,4.3,6.9,37,0.00,,OVC,0.00,VWS V14.01,2013-01-28 00:34:00,
2013-01-27 19:39:00,14.5,-7.0,30.33,NNW,338,5.4,5.8,37,0.00,,OVC,0.00,VWS V14.01,2013-01-28 00:39:00,
2013-01-27 19:44:00,14.5,-7.0,30.33,WNW,292,3.6,6.5,37,0.00,,OVC,0.00,VWS V14.01,2013-01-28 00:44:00,
2013-01-27 19:49:00,14.5,-7.0,30.33,NNW,338,4.0,7.2,37,0.00,,OVC,0.00,VWS V14.01,2013-01-28 00:49:00,
2013-01-27 19:54:00,14.4,-7.1,30.33,NNW,338,5.4,8.7,37,0.00,,OVC,0.00,VWS V14.01,2013-01-28 00:54:00,
2013-01-27 19:59:00,14.4,-6.6,30.33,NNW,338,4.5,6.3,38,0.00,,OVC,0.00,VWS V14.01,2013-01-28 00:59:00,
2013-01-27 20:00:00,14.2,-6.8,30.33,NNW,338,4.0,6.3,38,0.00,,OVC,0.00,VWS V14.01,2013-01-28 01:00:00,
2013-01-27 20:04:00,14.2,-6.8,30.33,NNW,338,5.4,10.3,38,0.00,,OVC,0.00,VWS V14.01,2013-01-28 01:04:00,
2013-01-27 20:09:00,14.2,-6.8,30.30,WNW,292,13.2,13.2,38,0.00,,OVC,0.00,VWS V14.01,2013-01-28 01:09:00,
2013-01-27 20:14:00,14.2,-6.2,30.30,NNW,338,7.8,12.1,39,0.00,,OVC,0.00,VWS V14.01,2013-01-28 01:14:00,
2013-01-27 20:19:00,14.0,-6.4,30.30,NNW,338,9.6,10.1,39,0.00,,OVC,0.00,VWS V14.01,2013-01-28 01:19:00,
2013-01-27 20:24:00,14.0,-5.9,30.33,NNW,338,6.3,12.1,40,0.00,,OVC,0.00,VWS V14.01,2013-01-28 01:24:00,
2013-01-27 20:29:00,13.8,-6.0,30.33,NNW,338,6.0,8.5,40,0.00,,OVC,0.00,VWS V14.01,2013-01-28 01:29:00,
2013-01-27 20:30:00,13.8,-6.0,30.33,NNW,338,8.1,8.1,40,0.00,,OVC,0.00,VWS V14.01,2013-01-28 01:30:00,
2013-01-27 20:34:00,13.8,-6.0,30.33,NNW,338,6.9,7.6,40,0.00,,OVC,0.00,VWS V14.01,2013-01-28 01:34:00,
2013-01-27 20:39:00,13.8,-6.0,30.33,NNW,338,9.0,15.4,40,0.00,,OVC,0.00,VWS V14.01,2013-01-28 01:39:00,
2013-01-27 20:44:00,13.8,-6.0,30.33,NW,315,6.5,12.3,40,0.00,,OVC,0.00,VWS V14.01,2013-01-28 01:44:00,
2013-01-27 20:49:00,13.6,-6.2,30.33,NNW,338,7.4,9.8,40,0.00,,OVC,0.00,VWS V14.01,2013-01-28 01:49:00,
2013-01-27 20:54:00,13.5,-6.3,30.33,NNW,338,8.1,9.6,40,0.00,,OVC,0.00,VWS V14.01,2013-01-28 01:54:00,
2013-01-27 20:59:00,13.5,-6.3,30.33,NNW,338,10.1,10.1,40,0.00,,OVC,0.00,VWS V14.01,2013-01-28 01:59:00,
2013-01-27 21:00:00,13.5,-6.3,30.33,NNW,338,10.3,14.5,40,0.00,,OVC,0.00,VWS V14.01,2013-01-28 02:00:00,
2013-01-27 21:04:00,13.3,-6.5,30.33,NNW,338,6.3,8.5,40,0.00,,OVC,0.00,VWS V14.01,2013-01-28 02:04:00,
2013-01-27 21:09:00,13.3,-6.5,30.33,NW,315,9.8,12.8,40,0.00,,OVC,0.00,VWS V14.01,2013-01-28 02:09:00,
2013-01-27 21:14:00,13.3,-6.5,30.33,NW,315,12.8,12.8,40,0.00,,OVC,0.00,VWS V14.01,2013-01-28 02:14:00,
2013-01-27 21:19:00,13.1,-6.7,30.33,North,0,10.3,13.2,40,0.00,,OVC,0.00,VWS V14.01,2013-01-28 02:19:00,
2013-01-27 21:24:00,12.9,-6.8,30.33,NNW,338,9.2,10.3,40,0.00,,OVC,0.00,VWS V14.01,2013-01-28 02:24:00,
2013-01-27 21:29:00,12.7,-7.0,30.33,NNW,338,12.1,12.1,40,0.00,,OVC,0.00,VWS V14.01,2013-01-28 02:29:00,
2013-01-27 21:30:00,12.7,-7.0,30.33,NNW,338,12.5,12.5,40,0.00,,OVC,0.00,VWS V14.01,2013-01-28 02:30:00,
2013-01-27 21:34:00,12.7,-7.0,30.33,NNW,338,8.1,8.5,40,0.00,,OVC,0.00,VWS V14.01,2013-01-28 02:34:00,
2013-01-27 21:39:00,12.7,-7.0,30.33,NNW,338,13.2,14.8,40,0.00,,OVC,0.00,VWS V14.01,2013-01-28 02:39:00,
2013-01-27 21:44:00,12.6,-7.2,30.33,NNW,338,17.2,19.9,40,0.00,,OVC,0.00,VWS V14.01,2013-01-28 02:44:00,
2013-01-27 21:49:00,12.6,-7.2,30.33,NNW,338,9.8,12.5,40,0.00,,OVC,0.00,VWS V14.01,2013-01-28 02:49:00,
2013-01-27 21:54:00,12.4,-7.3,30.33,NW,315,8.5,11.0,40,0.00,,OVC,0.00,VWS V14.01,2013-01-28 02:54:00,
2013-01-27 21:59:00,12.4,-7.3,30.33,NNW,338,6.9,13.0,40,0.00,,OVC,0.00,VWS V14.01,2013-01-28 02:59:00,
2013-01-27 22:00:00,12.2,-7.5,30.33,NW,315,10.5,10.5,40,0.00,,OVC,0.00,VWS V14.01,2013-01-28 03:00:00,
2013-01-27 22:04:00,12.2,-7.5,30.33,NW,315,15.2,15.2,40,0.00,,OVC,0.00,VWS V14.01,2013-01-28 03:04:00,
2013-01-27 22:09:00,12.0,-7.7,30.30,NW,315,8.7,10.1,40,0.00,,OVC,0.00,VWS V14.01,2013-01-28 03:09:00,
2013-01-27 22:14:00,12.0,-7.7,30.30,NW,315,10.3,10.5,40,0.00,,OVC,0.00,VWS V14.01,2013-01-28 03:14:00,
2013-01-27 22:19:00,11.8,-7.8,30.30,NW,315,9.8,9.8,40,0.00,,OVC,0.00,VWS V14.01,2013-01-28 03:19:00,
2013-01-27 22:24:00,11.8,-7.8,30.33,NNW,338,7.2,9.8,40,0.00,,OVC,0.00,VWS V14.01,2013-01-28 03:24:00,
2013-01-27 22:29:00,11.8,-7.8,30.33,NNW,338,8.7,13.0,40,0.00,,OVC,0.00,VWS V14.01,2013-01-28 03:29:00,
2013-01-27 22:30:00,11.8,-7.8,30.33,NNW,338,8.5,13.0,40,0.00,,OVC,0.00,VWS V14.01,2013-01-28 03:30:00,
2013-01-27 22:34:00,11.8,-7.8,30.33,NNW,338,7.4,13.4,40,0.00,,OVC,0.00,VWS V14.01,2013-01-28 03:34:00,
2013-01-27 22:39:00,11.7,-8.0,30.33,NNW,338,8.1,10.7,40,0.00,,OVC,0.00,VWS V14.01,2013-01-28 03:39:00,
2013-01-27 22:44:00,11.7,-8.0,30.33,NNW,338,7.8,12.3,40,0.00,,OVC,0.00,VWS V14.01,2013-01-28 03:44:00,
2013-01-27 22:49:00,11.5,-8.1,30.33,NNW,338,12.3,13.2,40,0.00,,OVC,0.00,VWS V14.01,2013-01-28 03:49:00,
2013-01-27 22:54:00,11.3,-8.3,30.30,NW,315,8.1,12.3,40,0.00,,OVC,0.00,VWS V14.01,2013-01-28 03:54:00,
2013-01-27 22:59:00,11.1,-8.5,30.30,NNW,338,10.1,10.1,40,0.00,,OVC,0.00,VWS V14.01,2013-01-28 03:59:00,
2013-01-27 23:00:00,11.1,-8.5,30.30,NNW,338,10.1,10.1,40,0.00,,OVC,0.00,VWS V14.01,2013-01-28 04:00:00,
2013-01-27 23:04:00,11.1,-8.5,30.30,NNW,338,8.1,9.8,40,0.00,,OVC,0.00,VWS V14.01,2013-01-28 04:04:00,
2013-01-27 23:09:00,10.9,-8.6,30.30,NW,315,9.4,9.8,40,0.00,,OVC,0.00,VWS V14.01,2013-01-28 04:09:00,
2013-01-27 23:14:00,10.8,-8.8,30.30,NW,315,7.6,8.5,40,0.00,,OVC,0.00,VWS V14.01,2013-01-28 04:14:00,
2013-01-27 23:19:00,10.8,-8.8,30.30,NNW,338,7.2,9.2,40,0.00,,OVC,0.00,VWS V14.01,2013-01-28 04:19:00,
2013-01-27 23:25:00,10.8,-8.8,30.33,NW,315,7.2,8.1,40,0.00,,OVC,0.00,VWS V14.01,2013-01-28 04:25:00,
2013-01-27 23:30:00,10.8,-8.8,30.33,NNW,338,6.0,8.7,40,0.00,,OVC,0.00,VWS V14.01,2013-01-28 04:30:00,
2013-01-27 23:35:00,10.6,-9.0,30.33,NW,315,7.2,8.1,40,0.00,,OVC,0.00,VWS V14.01,2013-01-28 04:35:00,
2013-01-27 23:40:00,10.6,-9.0,30.33,NNW,338,4.0,4.9,40,0.00,,OVC,0.00,VWS V14.01,2013-01-28 04:40:00,
2013-01-27 23:45:00,10.4,-9.1,30.33,NNW,338,4.0,4.9,40,0.00,,OVC,0.00,VWS V14.01,2013-01-28 04:45:00,
2013-01-27 23:50:00,10.4,-9.1,30.33,NNW,338,6.5,6.5,40,0.00,,OVC,0.00,VWS V14.01,2013-01-28 04:50:00,
2013-01-27 23:55:00,10.2,-9.3,30.33,NNW,338,4.9,6.0,40,0.00,,OVC,0.00,VWS V14.01,2013-01-28 04:55:00,